Terminal Aerodrome Forecast
Issued by NWS

Home | Current Version | Previous Version | Text Only | Print | Product List | Glossary On
Versions: 1 2 3 4 5 6 7 8 9 10 11 12 13 14 15 16 17 18 19 20 21 22 23 24 25 26 27 28 29 30
000
FTUS41 KOKX 230418 AAB
TAFGON
TAF AMD
KGON 230418Z 2304/2324 VRB02KT 6SM BR FEW001 FEW040 BKN250
      TEMPO 2304/2306 BKN001
     FM230600 VRB02KT 3SM BR SCT005 SCT040 BKN250
      TEMPO 2309/2312 BKN005
     FM231400 15007KT P6SM SCT006 BKN040
     FM231800 15010KT P6SM SCT006 BKN035=

USA.gov is the U.S. government's official web portal to all federal, state and local government web resources and services.